sensor_id;sensor_type;location;lat;lon;timestamp;P1;durP1;ratioP1;P2;durP2;ratioP2
18407;SDS011;9330;52.210;21.174;2022-07-10T00:00:27;3.15;;;2.60;;
18407;SDS011;9330;52.210;21.174;2022-07-10T00:02:57;2.63;;;2.42;;
18407;SDS011;9330;52.210;21.174;2022-07-10T00:05:24;2.70;;;2.25;;
18407;SDS011;9330;52.210;21.174;2022-07-10T00:07:52;4.30;;;2.45;;
18407;SDS011;9330;52.210;21.174;2022-07-10T00:10:20;2.65;;;2.30;;
18407;SDS011;9330;52.210;21.174;2022-07-10T00:12:48;2.78;;;2.45;;
18407;SDS011;9330;52.210;21.174;2022-07-10T00:15:16;4.68;;;2.67;;
18407;SDS011;9330;52.210;21.174;2022-07-10T00:17:44;3.40;;;2.40;;
18407;SDS011;9330;52.210;21.174;2022-07-10T00:20:12;3.45;;;2.33;;
18407;SDS011;9330;52.210;21.174;2022-07-10T00:22:40;2.63;;;2.30;;
18407;SDS011;9330;52.210;21.174;2022-07-10T00:25:09;2.92;;;2.28;;
18407;SDS011;9330;52.210;21.174;2022-07-10T00:27:38;2.25;;;2.05;;
18407;SDS011;9330;52.210;21.174;2022-07-10T00:30:06;5.05;;;2.63;;
18407;SDS011;9330;52.210;21.174;2022-07-10T00:32:34;2.60;;;2.40;;
18407;SDS011;9330;52.210;21.174;2022-07-10T00:35:02;4.20;;;2.20;;
18407;SDS011;9330;52.210;21.174;2022-07-10T00:37:29;3.38;;;2.10;;
18407;SDS011;9330;52.210;21.174;2022-07-10T00:39:56;2.15;;;1.95;;
18407;SDS011;9330;52.210;21.174;2022-07-10T00:42:25;2.90;;;2.15;;
18407;SDS011;9330;52.210;21.174;2022-07-10T00:44:53;2.22;;;2.03;;
18407;SDS011;9330;52.210;21.174;2022-07-10T00:47:20;2.20;;;1.98;;
18407;SDS011;9330;52.210;21.174;2022-07-10T00:49:47;3.13;;;2.10;;
18407;SDS011;9330;52.210;21.174;2022-07-10T00:52:15;2.50;;;2.10;;
18407;SDS011;9330;52.210;21.174;2022-07-10T00:54:44;2.35;;;1.92;;
18407;SDS011;9330;52.210;21.174;2022-07-10T00:57:12;3.70;;;1.80;;
18407;SDS011;9330;52.210;21.174;2022-07-10T00:59:40;2.67;;;1.90;;
18407;SDS011;9330;52.210;21.174;2022-07-10T01:02:09;3.75;;;1.85;;
18407;SDS011;9330;52.210;21.174;2022-07-10T01:04:36;2.83;;;2.10;;
18407;SDS011;9330;52.210;21.174;2022-07-10T01:07:03;2.05;;;1.50;;
18407;SDS011;9330;52.210;21.174;2022-07-10T01:09:31;2.90;;;2.08;;
18407;SDS011;9330;52.210;21.174;2022-07-10T01:11:59;3.20;;;1.80;;
18407;SDS011;9330;52.210;21.174;2022-07-10T01:14:27;2.17;;;1.90;;
18407;SDS011;9330;52.210;21.174;2022-07-10T01:16:55;3.03;;;1.90;;
18407;SDS011;9330;52.210;21.174;2022-07-10T01:19:23;2.65;;;2.00;;
18407;SDS011;9330;52.210;21.174;2022-07-10T01:21:52;2.33;;;1.77;;
18407;SDS011;9330;52.210;21.174;2022-07-10T01:24:19;3.13;;;2.00;;
18407;SDS011;9330;52.210;21.174;2022-07-10T01:26:46;3.00;;;1.83;;
18407;SDS011;9330;52.210;21.174;2022-07-10T01:29:13;2.10;;;1.85;;
18407;SDS011;9330;52.210;21.174;2022-07-10T01:31:40;2.10;;;1.90;;
18407;SDS011;9330;52.210;21.174;2022-07-10T01:34:08;2.90;;;2.05;;
18407;SDS011;9330;52.210;21.174;2022-07-10T01:36:36;2.70;;;1.98;;
18407;SDS011;9330;52.210;21.174;2022-07-10T01:39:05;3.35;;;2.30;;
18407;SDS011;9330;52.210;21.174;2022-07-10T01:41:33;2.40;;;2.20;;
18407;SDS011;9330;52.210;21.174;2022-07-10T01:44:01;3.10;;;1.73;;
18407;SDS011;9330;52.210;21.174;2022-07-10T01:46:28;4.22;;;2.08;;
18407;SDS011;9330;52.210;21.174;2022-07-10T01:48:55;2.10;;;1.83;;
18407;SDS011;9330;52.210;21.174;2022-07-10T01:51:23;3.72;;;2.17;;
18407;SDS011;9330;52.210;21.174;2022-07-10T01:53:50;2.25;;;1.88;;
18407;SDS011;9330;52.210;21.174;2022-07-10T01:56:18;4.38;;;2.10;;
18407;SDS011;9330;52.210;21.174;2022-07-10T01:58:45;3.05;;;2.03;;
18407;SDS011;9330;52.210;21.174;2022-07-10T02:01:12;1.98;;;1.70;;
18407;SDS011;9330;52.210;21.174;2022-07-10T02:03:39;2.15;;;1.83;;
18407;SDS011;9330;52.210;21.174;2022-07-10T02:06:23;2.25;;;1.85;;
18407;SDS011;9330;52.210;21.174;2022-07-10T02:08:50;2.30;;;1.80;;
18407;SDS011;9330;52.210;21.174;2022-07-10T02:11:19;3.22;;;1.63;;
18407;SDS011;9330;52.210;21.174;2022-07-10T02:13:46;2.83;;;1.92;;
18407;SDS011;9330;52.210;21.174;2022-07-10T02:16:13;2.58;;;1.90;;
18407;SDS011;9330;52.210;21.174;2022-07-10T02:18:40;3.08;;;2.40;;
18407;SDS011;9330;52.210;21.174;2022-07-10T02:21:07;2.47;;;1.92;;
18407;SDS011;9330;52.210;21.174;2022-07-10T02:23:34;2.38;;;1.80;;
18407;SDS011;9330;52.210;21.174;2022-07-10T02:26:01;2.10;;;1.90;;
18407;SDS011;9330;52.210;21.174;2022-07-10T02:28:30;3.05;;;2.17;;
18407;SDS011;9330;52.210;21.174;2022-07-10T02:30:57;2.75;;;2.03;;
18407;SDS011;9330;52.210;21.174;2022-07-10T02:33:24;2.33;;;1.90;;
18407;SDS011;9330;52.210;21.174;2022-07-10T02:35:51;3.63;;;2.17;;
18407;SDS011;9330;52.210;21.174;2022-07-10T02:38:18;3.28;;;2.00;;
18407;SDS011;9330;52.210;21.174;2022-07-10T02:40:45;2.42;;;2.22;;
18407;SDS011;9330;52.210;21.174;2022-07-10T02:43:12;2.45;;;1.70;;
18407;SDS011;9330;52.210;21.174;2022-07-10T02:45:41;2.70;;;1.73;;
18407;SDS011;9330;52.210;21.174;2022-07-10T02:48:08;2.45;;;1.95;;
18407;SDS011;9330;52.210;21.174;2022-07-10T02:50:35;3.15;;;2.22;;
18407;SDS011;9330;52.210;21.174;2022-07-10T02:53:02;2.38;;;2.08;;
18407;SDS011;9330;52.210;21.174;2022-07-10T02:55:29;3.33;;;1.98;;
18407;SDS011;9330;52.210;21.174;2022-07-10T02:57:57;4.22;;;1.90;;
18407;SDS011;9330;52.210;21.174;2022-07-10T03:00:25;2.55;;;2.33;;
18407;SDS011;9330;52.210;21.174;2022-07-10T03:02:54;4.20;;;1.83;;
18407;SDS011;9330;52.210;21.174;2022-07-10T03:05:21;4.35;;;2.13;;
18407;SDS011;9330;52.210;21.174;2022-07-10T03:07:48;4.03;;;1.80;;
18407;SDS011;9330;52.210;21.174;2022-07-10T03:10:15;2.60;;;2.10;;
18407;SDS011;9330;52.210;21.174;2022-07-10T03:12:42;3.20;;;2.20;;
18407;SDS011;9330;52.210;21.174;2022-07-10T03:15:11;3.22;;;2.00;;
18407;SDS011;9330;52.210;21.174;2022-07-10T03:17:39;3.90;;;2.20;;
18407;SDS011;9330;52.210;21.174;2022-07-10T03:20:07;2.90;;;2.30;;
18407;SDS011;9330;52.210;21.174;2022-07-10T03:22:35;3.33;;;2.38;;
18407;SDS011;9330;52.210;21.174;2022-07-10T03:25:02;4.20;;;3.00;;
18407;SDS011;9330;52.210;21.174;2022-07-10T03:27:29;3.67;;;2.47;;
18407;SDS011;9330;52.210;21.174;2022-07-10T03:29:56;3.00;;;2.42;;
18407;SDS011;9330;52.210;21.174;2022-07-10T03:32:23;4.20;;;2.70;;
18407;SDS011;9330;52.210;21.174;2022-07-10T03:34:50;4.35;;;2.70;;
18407;SDS011;9330;52.210;21.174;2022-07-10T03:37:19;4.75;;;2.70;;
18407;SDS011;9330;52.210;21.174;2022-07-10T03:39:46;3.78;;;3.20;;
18407;SDS011;9330;52.210;21.174;2022-07-10T03:42:13;4.05;;;2.63;;
18407;SDS011;9330;52.210;21.174;2022-07-10T03:44:40;5.97;;;3.30;;
18407;SDS011;9330;52.210;21.174;2022-07-10T03:47:07;3.78;;;2.80;;
18407;SDS011;9330;52.210;21.174;2022-07-10T03:49:34;4.35;;;2.80;;
18407;SDS011;9330;52.210;21.174;2022-07-10T03:52:04;5.05;;;2.83;;
18407;SDS011;9330;52.210;21.174;2022-07-10T03:54:32;4.03;;;2.72;;
18407;SDS011;9330;52.210;21.174;2022-07-10T03:56:59;3.67;;;2.75;;
18407;SDS011;9330;52.210;21.174;2022-07-10T03:59:44;6.13;;;3.20;;
18407;SDS011;9330;52.210;21.174;2022-07-10T04:02:12;3.38;;;2.53;;
18407;SDS011;9330;52.210;21.174;2022-07-10T04:04:39;5.90;;;3.25;;
18407;SDS011;9330;52.210;21.174;2022-07-10T04:07:06;5.40;;;2.60;;
18407;SDS011;9330;52.210;21.174;2022-07-10T04:09:34;3.95;;;2.60;;
18407;SDS011;9330;52.210;21.174;2022-07-10T04:12:01;3.88;;;2.47;;
18407;SDS011;9330;52.210;21.174;2022-07-10T04:14:28;6.13;;;2.85;;
18407;SDS011;9330;52.210;21.174;2022-07-10T04:16:56;3.95;;;2.55;;
18407;SDS011;9330;52.210;21.174;2022-07-10T04:19:22;3.72;;;2.45;;
18407;SDS011;9330;52.210;21.174;2022-07-10T04:21:49;4.50;;;2.33;;
18407;SDS011;9330;52.210;21.174;2022-07-10T04:24:16;4.72;;;2.33;;
18407;SDS011;9330;52.210;21.174;2022-07-10T04:26:45;3.75;;;2.20;;
18407;SDS011;9330;52.210;21.174;2022-07-10T04:29:12;4.28;;;2.42;;
18407;SDS011;9330;52.210;21.174;2022-07-10T04:31:39;2.92;;;2.40;;
18407;SDS011;9330;52.210;21.174;2022-07-10T04:34:06;3.30;;;2.10;;
18407;SDS011;9330;52.210;21.174;2022-07-10T04:36:33;4.70;;;2.10;;
18407;SDS011;9330;52.210;21.174;2022-07-10T04:38:59;3.88;;;2.30;;
18407;SDS011;9330;52.210;21.174;2022-07-10T04:41:26;6.47;;;2.40;;
18407;SDS011;9330;52.210;21.174;2022-07-10T04:43:55;2.70;;;2.00;;
18407;SDS011;9330;52.210;21.174;2022-07-10T04:46:22;2.65;;;1.70;;
18407;SDS011;9330;52.210;21.174;2022-07-10T04:48:49;5.20;;;2.38;;
18407;SDS011;9330;52.210;21.174;2022-07-10T04:51:16;3.95;;;2.17;;
18407;SDS011;9330;52.210;21.174;2022-07-10T04:53:43;5.00;;;2.35;;
18407;SDS011;9330;52.210;21.174;2022-07-10T04:56:10;3.80;;;1.70;;
18407;SDS011;9330;52.210;21.174;2022-07-10T04:58:37;3.25;;;1.80;;
18407;SDS011;9330;52.210;21.174;2022-07-10T05:01:06;3.90;;;1.95;;
18407;SDS011;9330;52.210;21.174;2022-07-10T05:03:33;3.50;;;1.60;;
18407;SDS011;9330;52.210;21.174;2022-07-10T05:06:00;6.35;;;1.75;;
18407;SDS011;9330;52.210;21.174;2022-07-10T05:08:27;2.58;;;1.67;;
18407;SDS011;9330;52.210;21.174;2022-07-10T05:10:54;3.35;;;1.70;;
18407;SDS011;9330;52.210;21.174;2022-07-10T05:13:21;3.20;;;1.73;;
18407;SDS011;9330;52.210;21.174;2022-07-10T05:15:48;2.83;;;1.70;;
18407;SDS011;9330;52.210;21.174;2022-07-10T05:18:16;2.47;;;1.48;;
18407;SDS011;9330;52.210;21.174;2022-07-10T05:20:43;4.45;;;1.48;;
18407;SDS011;9330;52.210;21.174;2022-07-10T05:23:13;3.03;;;1.70;;
18407;SDS011;9330;52.210;21.174;2022-07-10T05:25:40;2.95;;;1.55;;
18407;SDS011;9330;52.210;21.174;2022-07-10T05:28:07;3.83;;;1.45;;
18407;SDS011;9330;52.210;21.174;2022-07-10T05:30:34;3.67;;;1.60;;
18407;SDS011;9330;52.210;21.174;2022-07-10T05:33:01;2.45;;;1.45;;
18407;SDS011;9330;52.210;21.174;2022-07-10T05:35:29;2.90;;;1.35;;
18407;SDS011;9330;52.210;21.174;2022-07-10T05:37:56;2.88;;;1.38;;
18407;SDS011;9330;52.210;21.174;2022-07-10T05:40:23;3.15;;;1.40;;
18407;SDS011;9330;52.210;21.174;2022-07-10T05:42:50;2.70;;;1.25;;
18407;SDS011;9330;52.210;21.174;2022-07-10T05:45:17;3.17;;;1.50;;
18407;SDS011;9330;52.210;21.174;2022-07-10T05:47:45;4.50;;;1.17;;
18407;SDS011;9330;52.210;21.174;2022-07-10T05:50:12;2.45;;;1.42;;
18407;SDS011;9330;52.210;21.174;2022-07-10T05:52:40;3.50;;;1.50;;
18407;SDS011;9330;52.210;21.174;2022-07-10T05:55:07;2.78;;;1.20;;
18407;SDS011;9330;52.210;21.174;2022-07-10T05:57:34;2.53;;;0.90;;
18407;SDS011;9330;52.210;21.174;2022-07-10T06:00:02;3.85;;;1.20;;
18407;SDS011;9330;52.210;21.174;2022-07-10T06:02:30;2.35;;;1.10;;
18407;SDS011;9330;52.210;21.174;2022-07-10T06:04:57;3.67;;;1.58;;
18407;SDS011;9330;52.210;21.174;2022-07-10T06:07:25;2.30;;;0.90;;
18407;SDS011;9330;52.210;21.174;2022-07-10T06:09:53;1.38;;;1.02;;
18407;SDS011;9330;52.210;21.174;2022-07-10T06:12:20;2.08;;;1.20;;
18407;SDS011;9330;52.210;21.174;2022-07-10T06:14:47;2.70;;;1.17;;
18407;SDS011;9330;52.210;21.174;2022-07-10T06:17:14;2.70;;;1.15;;
18407;SDS011;9330;52.210;21.174;2022-07-10T06:19:41;1.27;;;1.00;;
18407;SDS011;9330;52.210;21.174;2022-07-10T06:22:08;3.38;;;1.45;;
18407;SDS011;9330;52.210;21.174;2022-07-10T06:24:54;3.92;;;2.08;;
18407;SDS011;9330;52.210;21.174;2022-07-10T06:27:21;3.30;;;1.75;;
18407;SDS011;9330;52.210;21.174;2022-07-10T06:29:48;3.95;;;1.65;;
18407;SDS011;9330;52.210;21.174;2022-07-10T06:32:15;3.38;;;1.50;;
18407;SDS011;9330;52.210;21.174;2022-07-10T06:34:42;5.45;;;1.30;;
18407;SDS011;9330;52.210;21.174;2022-07-10T06:37:09;3.75;;;1.10;;
18407;SDS011;9330;52.210;21.174;2022-07-10T06:39:36;1.90;;;0.90;;
18407;SDS011;9330;52.210;21.174;2022-07-10T06:42:05;1.65;;;0.90;;
18407;SDS011;9330;52.210;21.174;2022-07-10T06:44:32;3.53;;;1.13;;
18407;SDS011;9330;52.210;21.174;2022-07-10T06:47:00;2.55;;;1.10;;
18407;SDS011;9330;52.210;21.174;2022-07-10T06:49:45;2.63;;;0.95;;
18407;SDS011;9330;52.210;21.174;2022-07-10T06:52:13;4.15;;;1.13;;
18407;SDS011;9330;52.210;21.174;2022-07-10T06:54:41;2.28;;;0.90;;
18407;SDS011;9330;52.210;21.174;2022-07-10T06:57:10;3.72;;;1.05;;
18407;SDS011;9330;52.210;21.174;2022-07-10T06:59:38;2.53;;;1.30;;
18407;SDS011;9330;52.210;21.174;2022-07-10T07:02:05;2.38;;;1.10;;
18407;SDS011;9330;52.210;21.174;2022-07-10T07:04:32;2.03;;;1.30;;
18407;SDS011;9330;52.210;21.174;2022-07-10T07:07:01;3.47;;;1.30;;
18407;SDS011;9330;52.210;21.174;2022-07-10T07:09:28;3.55;;;1.67;;
18407;SDS011;9330;52.210;21.174;2022-07-10T07:11:55;2.55;;;1.30;;
18407;SDS011;9330;52.210;21.174;2022-07-10T07:14:24;2.70;;;1.23;;
18407;SDS011;9330;52.210;21.174;2022-07-10T07:16:51;2.67;;;1.45;;
18407;SDS011;9330;52.210;21.174;2022-07-10T07:19:28;5.95;;;1.73;;
18407;SDS011;9330;52.210;21.174;2022-07-10T07:22:18;3.83;;;1.60;;
18407;SDS011;9330;52.210;21.174;2022-07-10T07:25:02;2.25;;;1.20;;
18407;SDS011;9330;52.210;21.174;2022-07-10T07:27:29;2.45;;;1.60;;
18407;SDS011;9330;52.210;21.174;2022-07-10T07:29:58;3.75;;;1.40;;
18407;SDS011;9330;52.210;21.174;2022-07-10T07:32:28;2.97;;;1.48;;
18407;SDS011;9330;52.210;21.174;2022-07-10T07:34:55;3.15;;;1.73;;
18407;SDS011;9330;52.210;21.174;2022-07-10T07:37:22;7.32;;;2.15;;
18407;SDS011;9330;52.210;21.174;2022-07-10T07:39:49;2.72;;;1.83;;
18407;SDS011;9330;52.210;21.174;2022-07-10T07:42:16;2.47;;;1.75;;
18407;SDS011;9330;52.210;21.174;2022-07-10T07:44:43;3.00;;;1.70;;
18407;SDS011;9330;52.210;21.174;2022-07-10T07:47:11;5.88;;;1.90;;
18407;SDS011;9330;52.210;21.174;2022-07-10T07:49:39;3.25;;;2.20;;
18407;SDS011;9330;52.210;21.174;2022-07-10T07:52:06;2.85;;;1.85;;
18407;SDS011;9330;52.210;21.174;2022-07-10T07:54:33;2.45;;;1.55;;
18407;SDS011;9330;52.210;21.174;2022-07-10T07:57:00;3.03;;;1.55;;
18407;SDS011;9330;52.210;21.174;2022-07-10T07:59:27;3.30;;;1.70;;
18407;SDS011;9330;52.210;21.174;2022-07-10T08:01:54;2.47;;;1.45;;
18407;SDS011;9330;52.210;21.174;2022-07-10T08:04:22;1.73;;;1.30;;
18407;SDS011;9330;52.210;21.174;2022-07-10T08:06:49;4.75;;;1.60;;
18407;SDS011;9330;52.210;21.174;2022-07-10T08:09:17;2.60;;;1.48;;
18407;SDS011;9330;52.210;21.174;2022-07-10T08:11:44;1.77;;;1.02;;
18407;SDS011;9330;52.210;21.174;2022-07-10T08:14:11;2.53;;;1.40;;
18407;SDS011;9330;52.210;21.174;2022-07-10T08:16:39;2.97;;;1.35;;
18407;SDS011;9330;52.210;21.174;2022-07-10T08:19:06;2.65;;;1.25;;
18407;SDS011;9330;52.210;21.174;2022-07-10T08:21:34;4.50;;;1.70;;
18407;SDS011;9330;52.210;21.174;2022-07-10T08:24:01;2.40;;;1.40;;
18407;SDS011;9330;52.210;21.174;2022-07-10T08:26:29;3.78;;;1.40;;
18407;SDS011;9330;52.210;21.174;2022-07-10T08:28:56;2.95;;;1.35;;
18407;SDS011;9330;52.210;21.174;2022-07-10T08:31:22;6.03;;;1.60;;
18407;SDS011;9330;52.210;21.174;2022-07-10T08:33:49;5.18;;;1.45;;
18407;SDS011;9330;52.210;21.174;2022-07-10T08:36:17;1.42;;;1.00;;
18407;SDS011;9330;52.210;21.174;2022-07-10T08:38:46;3.50;;;1.40;;
18407;SDS011;9330;52.210;21.174;2022-07-10T08:41:13;2.38;;;1.17;;
18407;SDS011;9330;52.210;21.174;2022-07-10T08:43:41;3.22;;;1.13;;
18407;SDS011;9330;52.210;21.174;2022-07-10T08:46:09;5.43;;;1.52;;
18407;SDS011;9330;52.210;21.174;2022-07-10T08:51:22;1.95;;;0.82;;
18407;SDS011;9330;52.210;21.174;2022-07-10T08:53:58;3.25;;;0.82;;
18407;SDS011;9330;52.210;21.174;2022-07-10T08:56:27;3.38;;;1.23;;
18407;SDS011;9330;52.210;21.174;2022-07-10T08:58:53;6.32;;;1.45;;
18407;SDS011;9330;52.210;21.174;2022-07-10T09:01:21;2.38;;;1.05;;
18407;SDS011;9330;52.210;21.174;2022-07-10T09:03:51;4.70;;;1.23;;
18407;SDS011;9330;52.210;21.174;2022-07-10T09:06:18;3.58;;;0.90;;
18407;SDS011;9330;52.210;21.174;2022-07-10T09:09:00;4.15;;;1.77;;
18407;SDS011;9330;52.210;21.174;2022-07-10T09:11:30;1.90;;;1.00;;
18407;SDS011;9330;52.210;21.174;2022-07-10T09:14:01;4.60;;;1.30;;
18407;SDS011;9330;52.210;21.174;2022-07-10T09:16:33;2.35;;;1.05;;
18407;SDS011;9330;52.210;21.174;2022-07-10T09:19:15;4.05;;;1.30;;
18407;SDS011;9330;52.210;21.174;2022-07-10T09:21:44;2.63;;;1.25;;
18407;SDS011;9330;52.210;21.174;2022-07-10T09:24:16;3.55;;;1.23;;
18407;SDS011;9330;52.210;21.174;2022-07-10T09:26:47;2.88;;;1.25;;
18407;SDS011;9330;52.210;21.174;2022-07-10T09:29:24;5.95;;;1.55;;
18407;SDS011;9330;52.210;21.174;2022-07-10T09:31:52;5.25;;;1.48;;
18407;SDS011;9330;52.210;21.174;2022-07-10T09:34:34;2.33;;;1.20;;
18407;SDS011;9330;52.210;21.174;2022-07-10T09:37:18;3.75;;;1.40;;
18407;SDS011;9330;52.210;21.174;2022-07-10T09:39:53;2.65;;;1.10;;
18407;SDS011;9330;52.210;21.174;2022-07-10T09:42:24;4.57;;;1.10;;
18407;SDS011;9330;52.210;21.174;2022-07-10T09:44:53;3.30;;;1.00;;
18407;SDS011;9330;52.210;21.174;2022-07-10T09:47:41;4.32;;;1.25;;
18407;SDS011;9330;52.210;21.174;2022-07-10T09:50:19;2.50;;;1.10;;
18407;SDS011;9330;52.210;21.174;2022-07-10T09:52:49;1.85;;;1.10;;
18407;SDS011;9330;52.210;21.174;2022-07-10T09:55:20;2.78;;;1.40;;
18407;SDS011;9330;52.210;21.174;2022-07-10T09:57:53;2.20;;;1.27;;
18407;SDS011;9330;52.210;21.174;2022-07-10T10:00:23;3.90;;;1.40;;
18407;SDS011;9330;52.210;21.174;2022-07-10T10:02:55;1.88;;;1.13;;
18407;SDS011;9330;52.210;21.174;2022-07-10T10:05:26;2.90;;;1.13;;
18407;SDS011;9330;52.210;21.174;2022-07-10T10:08:01;3.10;;;1.20;;
18407;SDS011;9330;52.210;21.174;2022-07-10T10:10:36;1.48;;;1.00;;
18407;SDS011;9330;52.210;21.174;2022-07-10T10:13:09;3.13;;;1.20;;
18407;SDS011;9330;52.210;21.174;2022-07-10T10:15:38;4.10;;;1.35;;
18407;SDS011;9330;52.210;21.174;2022-07-10T10:18:05;4.28;;;1.25;;
18407;SDS011;9330;52.210;21.174;2022-07-10T10:20:33;1.98;;;0.80;;
18407;SDS011;9330;52.210;21.174;2022-07-10T10:23:08;1.05;;;0.60;;
18407;SDS011;9330;52.210;21.174;2022-07-10T10:25:40;2.50;;;0.98;;
18407;SDS011;9330;52.210;21.174;2022-07-10T10:28:08;1.98;;;0.80;;
18407;SDS011;9330;52.210;21.174;2022-07-10T10:30:37;2.53;;;0.88;;
18407;SDS011;9330;52.210;21.174;2022-07-10T10:36:11;1.67;;;0.90;;
18407;SDS011;9330;52.210;21.174;2022-07-10T10:41:50;2.10;;;1.00;;
18407;SDS011;9330;52.210;21.174;2022-07-10T10:44:24;1.85;;;0.80;;
18407;SDS011;9330;52.210;21.174;2022-07-10T10:47:03;3.97;;;1.00;;
18407;SDS011;9330;52.210;21.174;2022-07-10T10:49:51;2.33;;;0.90;;
18407;SDS011;9330;52.210;21.174;2022-07-10T10:52:21;1.42;;;0.65;;
18407;SDS011;9330;52.210;21.174;2022-07-10T10:55:07;2.28;;;1.10;;
18407;SDS011;9330;52.210;21.174;2022-07-10T10:57:41;3.10;;;0.90;;
18407;SDS011;9330;52.210;21.174;2022-07-10T11:00:14;3.10;;;0.70;;
18407;SDS011;9330;52.210;21.174;2022-07-10T11:05:56;1.65;;;0.60;;
18407;SDS011;9330;52.210;21.174;2022-07-10T11:08:36;1.58;;;0.50;;
18407;SDS011;9330;52.210;21.174;2022-07-10T11:14:06;0.90;;;0.50;;
18407;SDS011;9330;52.210;21.174;2022-07-10T11:16:34;0.35;;;0.30;;
18407;SDS011;9330;52.210;21.174;2022-07-10T11:19:01;1.38;;;0.60;;
18407;SDS011;9330;52.210;21.174;2022-07-10T11:21:30;1.50;;;0.70;;
18407;SDS011;9330;52.210;21.174;2022-07-10T11:24:14;3.72;;;0.60;;
18407;SDS011;9330;52.210;21.174;2022-07-10T11:26:58;2.55;;;0.68;;
18407;SDS011;9330;52.210;21.174;2022-07-10T11:29:37;1.17;;;0.52;;
18407;SDS011;9330;52.210;21.174;2022-07-10T11:32:04;1.33;;;0.50;;
18407;SDS011;9330;52.210;21.174;2022-07-10T11:34:36;1.55;;;0.60;;
18407;SDS011;9330;52.210;21.174;2022-07-10T11:37:03;3.60;;;0.80;;
18407;SDS011;9330;52.210;21.174;2022-07-10T11:39:41;2.00;;;0.73;;
18407;SDS011;9330;52.210;21.174;2022-07-10T11:42:08;2.03;;;1.00;;
18407;SDS011;9330;52.210;21.174;2022-07-10T11:44:35;3.53;;;1.20;;
18407;SDS011;9330;52.210;21.174;2022-07-10T11:47:03;2.55;;;1.30;;
18407;SDS011;9330;52.210;21.174;2022-07-10T11:49:32;2.38;;;1.00;;
18407;SDS011;9330;52.210;21.174;2022-07-10T11:52:01;1.95;;;0.80;;
18407;SDS011;9330;52.210;21.174;2022-07-10T11:54:29;2.67;;;0.98;;
18407;SDS011;9330;52.210;21.174;2022-07-10T11:57:03;2.33;;;0.60;;
18407;SDS011;9330;52.210;21.174;2022-07-10T11:59:32;7.20;;;0.88;;
18407;SDS011;9330;52.210;21.174;2022-07-10T12:02:01;2.03;;;0.63;;
18407;SDS011;9330;52.210;21.174;2022-07-10T12:04:28;2.13;;;0.73;;
18407;SDS011;9330;52.210;21.174;2022-07-10T12:06:56;2.40;;;0.85;;
18407;SDS011;9330;52.210;21.174;2022-07-10T12:09:23;1.50;;;0.60;;
18407;SDS011;9330;52.210;21.174;2022-07-10T12:12:00;4.00;;;0.70;;
18407;SDS011;9330;52.210;21.174;2022-07-10T12:14:28;1.80;;;0.70;;
18407;SDS011;9330;52.210;21.174;2022-07-10T12:16:55;1.83;;;0.80;;
18407;SDS011;9330;52.210;21.174;2022-07-10T12:19:25;1.90;;;0.70;;
18407;SDS011;9330;52.210;21.174;2022-07-10T12:21:55;1.50;;;0.60;;
18407;SDS011;9330;52.210;21.174;2022-07-10T12:24:23;3.30;;;0.95;;
18407;SDS011;9330;52.210;21.174;2022-07-10T12:26:51;2.00;;;0.65;;
18407;SDS011;9330;52.210;21.174;2022-07-10T12:29:20;1.95;;;0.80;;
18407;SDS011;9330;52.210;21.174;2022-07-10T12:31:49;2.63;;;0.63;;
18407;SDS011;9330;52.210;21.174;2022-07-10T12:34:16;2.55;;;0.70;;
18407;SDS011;9330;52.210;21.174;2022-07-10T12:36:46;1.20;;;0.70;;
18407;SDS011;9330;52.210;21.174;2022-07-10T12:39:15;3.35;;;0.77;;
18407;SDS011;9330;52.210;21.174;2022-07-10T12:41:53;1.33;;;0.70;;
18407;SDS011;9330;52.210;21.174;2022-07-10T12:44:35;2.15;;;0.80;;
18407;SDS011;9330;52.210;21.174;2022-07-10T12:47:04;3.83;;;0.80;;
18407;SDS011;9330;52.210;21.174;2022-07-10T12:49:48;2.00;;;0.70;;
18407;SDS011;9330;52.210;21.174;2022-07-10T12:52:21;2.72;;;0.77;;
18407;SDS011;9330;52.210;21.174;2022-07-10T12:55:04;3.38;;;1.10;;
18407;SDS011;9330;52.210;21.174;2022-07-10T12:57:44;2.42;;;0.90;;
18407;SDS011;9330;52.210;21.174;2022-07-10T13:00:12;2.10;;;0.90;;
18407;SDS011;9330;52.210;21.174;2022-07-10T13:02:41;2.20;;;0.80;;
18407;SDS011;9330;52.210;21.174;2022-07-10T13:05:08;1.38;;;0.70;;
18407;SDS011;9330;52.210;21.174;2022-07-10T13:07:36;3.88;;;0.93;;
18407;SDS011;9330;52.210;21.174;2022-07-10T13:10:04;1.25;;;0.60;;
18407;SDS011;9330;52.210;21.174;2022-07-10T13:12:32;2.15;;;0.50;;
18407;SDS011;9330;52.210;21.174;2022-07-10T13:14:59;1.42;;;0.73;;
18407;SDS011;9330;52.210;21.174;2022-07-10T13:17:27;4.07;;;1.00;;
18407;SDS011;9330;52.210;21.174;2022-07-10T13:19:55;2.00;;;0.80;;
18407;SDS011;9330;52.210;21.174;2022-07-10T13:22:22;3.88;;;0.82;;
18407;SDS011;9330;52.210;21.174;2022-07-10T13:24:50;4.32;;;0.88;;
18407;SDS011;9330;52.210;21.174;2022-07-10T13:27:17;1.58;;;0.70;;
18407;SDS011;9330;52.210;21.174;2022-07-10T13:29:45;2.42;;;0.70;;
18407;SDS011;9330;52.210;21.174;2022-07-10T13:32:13;2.20;;;0.80;;
18407;SDS011;9330;52.210;21.174;2022-07-10T13:34:40;2.85;;;1.02;;
18407;SDS011;9330;52.210;21.174;2022-07-10T13:37:07;2.00;;;0.90;;
18407;SDS011;9330;52.210;21.174;2022-07-10T13:39:39;3.22;;;1.10;;
18407;SDS011;9330;52.210;21.174;2022-07-10T13:42:07;1.80;;;1.08;;
18407;SDS011;9330;52.210;21.174;2022-07-10T13:44:34;5.13;;;1.60;;
18407;SDS011;9330;52.210;21.174;2022-07-10T13:47:01;3.75;;;1.70;;
18407;SDS011;9330;52.210;21.174;2022-07-10T13:49:28;2.47;;;1.02;;
18407;SDS011;9330;52.210;21.174;2022-07-10T13:51:56;2.25;;;1.02;;
18407;SDS011;9330;52.210;21.174;2022-07-10T13:54:23;2.75;;;0.93;;
18407;SDS011;9330;52.210;21.174;2022-07-10T13:56:50;2.63;;;0.60;;
18407;SDS011;9330;52.210;21.174;2022-07-10T13:59:19;2.17;;;0.90;;
18407;SDS011;9330;52.210;21.174;2022-07-10T14:01:46;0.82;;;0.60;;
18407;SDS011;9330;52.210;21.174;2022-07-10T14:04:13;1.38;;;0.75;;
18407;SDS011;9330;52.210;21.174;2022-07-10T14:06:40;1.38;;;0.70;;
18407;SDS011;9330;52.210;21.174;2022-07-10T14:09:07;2.92;;;1.10;;
18407;SDS011;9330;52.210;21.174;2022-07-10T14:11:34;2.25;;;1.10;;
18407;SDS011;9330;52.210;21.174;2022-07-10T14:14:01;2.38;;;0.90;;
18407;SDS011;9330;52.210;21.174;2022-07-10T14:16:30;1.92;;;1.10;;
18407;SDS011;9330;52.210;21.174;2022-07-10T14:18:57;2.42;;;1.00;;
18407;SDS011;9330;52.210;21.174;2022-07-10T14:21:23;1.88;;;1.17;;
18407;SDS011;9330;52.210;21.174;2022-07-10T14:23:52;1.65;;;0.95;;
18407;SDS011;9330;52.210;21.174;2022-07-10T14:26:21;3.75;;;1.23;;
18407;SDS011;9330;52.210;21.174;2022-07-10T14:28:48;2.28;;;1.02;;
18407;SDS011;9330;52.210;21.174;2022-07-10T14:31:16;3.05;;;1.13;;
18407;SDS011;9330;52.210;21.174;2022-07-10T14:33:45;1.40;;;1.00;;
18407;SDS011;9330;52.210;21.174;2022-07-10T14:36:12;3.80;;;1.30;;
18407;SDS011;9330;52.210;21.174;2022-07-10T14:38:39;2.60;;;1.17;;
18407;SDS011;9330;52.210;21.174;2022-07-10T14:41:06;4.85;;;1.13;;
18407;SDS011;9330;52.210;21.174;2022-07-10T14:43:33;2.05;;;1.08;;
18407;SDS011;9330;52.210;21.174;2022-07-10T14:46:01;3.22;;;1.00;;
18407;SDS011;9330;52.210;21.174;2022-07-10T14:48:30;2.53;;;1.10;;
18407;SDS011;9330;52.210;21.174;2022-07-10T14:50:59;2.08;;;0.90;;
18407;SDS011;9330;52.210;21.174;2022-07-10T14:53:27;3.40;;;1.10;;
18407;SDS011;9330;52.210;21.174;2022-07-10T14:55:54;1.67;;;0.98;;
18407;SDS011;9330;52.210;21.174;2022-07-10T14:58:21;2.38;;;0.98;;
18407;SDS011;9330;52.210;21.174;2022-07-10T15:00:48;1.45;;;0.85;;
18407;SDS011;9330;52.210;21.174;2022-07-10T15:03:15;1.73;;;0.85;;
18407;SDS011;9330;52.210;21.174;2022-07-10T15:05:42;2.33;;;0.95;;
18407;SDS011;9330;52.210;21.174;2022-07-10T15:08:10;1.02;;;0.90;;
18407;SDS011;9330;52.210;21.174;2022-07-10T15:10:37;2.53;;;0.93;;
18407;SDS011;9330;52.210;21.174;2022-07-10T15:13:07;3.28;;;1.00;;